createdAt,value
2019-02-20T00:01:45.652Z,100741.81
2019-02-20T00:04:14.782Z,100732.58
2019-02-20T00:06:43.964Z,100739.59
2019-02-20T00:09:13.115Z,100744.41
2019-02-20T00:11:42.332Z,100745.66
2019-02-20T00:14:11.472Z,100746.91
2019-02-20T00:16:40.613Z,100751.24
2019-02-20T00:19:09.760Z,100752.03
2019-02-20T00:21:38.894Z,100756.30
2019-02-20T00:24:08.049Z,100757.16
2019-02-20T00:26:37.224Z,100757.52
2019-02-20T00:29:06.391Z,100757.91
2019-02-20T00:31:35.532Z,100760.08
2019-02-20T00:34:04.662Z,100763.55
2019-02-20T00:36:33.837Z,100760.87
2019-02-20T00:39:03.668Z,100763.42
2019-02-20T00:41:32.873Z,100764.17
2019-02-20T00:44:16.434Z,100763.72
2019-02-20T00:47:07.358Z,100766.70
2019-02-20T00:49:39.960Z,100764.44
2019-02-20T00:52:31.162Z,100768.80
2019-02-20T00:55:00.522Z,100767.02
2019-02-20T00:57:29.605Z,100765.67
2019-02-20T00:59:58.826Z,100766.11
2019-02-20T01:02:27.977Z,100767.34
2019-02-20T01:04:57.138Z,100768.16
2019-02-20T01:07:26.321Z,100771.20
2019-02-20T01:09:55.408Z,100770.75
2019-02-20T01:12:24.535Z,100769.86
2019-02-20T01:14:53.656Z,100762.92
2019-02-20T01:17:22.798Z,100769.51
2019-02-20T01:19:51.982Z,100769.90
2019-02-20T01:22:21.092Z,100766.36
2019-02-20T01:24:50.200Z,100764.16
2019-02-20T01:27:19.401Z,100764.16
2019-02-20T01:29:48.509Z,100768.52
2019-02-20T01:32:17.657Z,100767.67
2019-02-20T01:34:46.787Z,100765.90
2019-02-20T01:37:15.931Z,100769.41
2019-02-20T01:39:45.062Z,100770.29
2019-02-20T01:42:14.199Z,100763.73
2019-02-20T01:44:43.317Z,100756.27
2019-02-20T01:47:12.473Z,100752.37
2019-02-20T01:49:43.714Z,100750.56
2019-02-20T01:52:12.469Z,100748.41
2019-02-20T01:54:41.604Z,100742.70
2019-02-20T01:57:10.718Z,100752.30
2019-02-20T01:59:39.903Z,100753.58
2019-02-20T02:02:09.035Z,100755.37
2019-02-20T02:04:38.131Z,100755.84
2019-02-20T02:07:07.312Z,100757.15
2019-02-20T02:09:36.445Z,100762.39
2019-02-20T02:12:05.660Z,100761.47
2019-02-20T02:14:34.827Z,100765.44
2019-02-20T02:17:04.134Z,100754.07
2019-02-20T02:19:33.260Z,100754.49
2019-02-20T02:22:02.454Z,100758.89
2019-02-20T02:24:31.658Z,100756.69
2019-02-20T02:27:00.804Z,100746.24
2019-02-20T02:29:29.929Z,100750.14
2019-02-20T02:31:59.051Z,100742.31
2019-02-20T02:34:28.187Z,100744.93
2019-02-20T02:36:57.337Z,100745.85
2019-02-20T02:39:26.465Z,100740.67
2019-02-20T02:41:55.589Z,100741.66
2019-02-20T02:44:24.742Z,100736.02
2019-02-20T02:46:53.896Z,100734.75
2019-02-20T02:49:23.014Z,100729.54
2019-02-20T02:51:52.185Z,100730.84
2019-02-20T02:54:21.281Z,100732.62
2019-02-20T02:56:50.421Z,100732.25
2019-02-20T02:59:19.575Z,100733.14
2019-02-20T03:01:48.715Z,100734.45
2019-02-20T03:04:17.853Z,100743.66
2019-02-20T03:06:47.023Z,100742.80
2019-02-20T03:09:16.142Z,100740.19
2019-02-20T03:11:45.309Z,100742.84
2019-02-20T03:14:14.450Z,100749.36
2019-02-20T03:16:43.597Z,100748.48
2019-02-20T03:19:12.788Z,100741.00
2019-02-20T03:21:41.957Z,100739.70
2019-02-20T03:24:11.094Z,100739.27
2019-02-20T03:26:40.215Z,100738.87
2019-02-20T03:29:09.320Z,100734.12
2019-02-20T03:31:38.487Z,100741.66
2019-02-20T03:34:09.019Z,100738.64
2019-02-20T03:36:38.250Z,100746.57
2019-02-20T03:39:07.719Z,100736.55
2019-02-20T03:41:36.858Z,100742.27
2019-02-20T03:44:06.002Z,100741.42
2019-02-20T03:46:35.197Z,100740.96
2019-02-20T03:49:04.338Z,100738.34
2019-02-20T03:51:33.447Z,100737.48
2019-02-20T03:54:02.591Z,100737.48
2019-02-20T03:56:31.720Z,100734.86
2019-02-20T03:59:00.871Z,100741.42
2019-02-20T04:01:30.397Z,100741.87
2019-02-20T04:03:59.587Z,100741.02
2019-02-20T04:06:28.743Z,100734.07
2019-02-20T04:08:57.857Z,100734.95
2019-02-20T04:11:27.027Z,100735.38
2019-02-20T04:13:56.128Z,100739.31
2019-02-20T04:16:25.275Z,100731.05
2019-02-20T04:18:54.407Z,100731.94
2019-02-20T04:21:23.560Z,100736.33
2019-02-20T04:24:01.818Z,100735.05
2019-02-20T04:26:23.602Z,100735.50
2019-02-20T04:28:52.742Z,100734.66
2019-02-20T04:31:21.886Z,100737.27
2019-02-20T04:33:51.047Z,100739.44
2019-02-20T04:36:20.170Z,100743.80
2019-02-20T04:38:49.280Z,100742.49
2019-02-20T04:41:18.436Z,100746.03
2019-02-20T04:43:47.556Z,100744.29
2019-02-20T04:46:16.757Z,100746.06
2019-02-20T04:48:45.970Z,100750.88
2019-02-20T04:51:15.139Z,100750.88
2019-02-20T04:53:44.249Z,100745.17
2019-02-20T04:56:13.366Z,100754.36
2019-02-20T04:58:42.629Z,100752.16
2019-02-20T05:01:11.765Z,100741.21
2019-02-20T05:03:40.931Z,100737.27
2019-02-20T05:06:10.090Z,100742.52
2019-02-20T05:08:39.223Z,100743.83
2019-02-20T05:11:08.363Z,100746.00
2019-02-20T05:13:37.508Z,100738.13
2019-02-20T05:16:06.651Z,100752.09
2019-02-20T05:18:35.831Z,100745.51
2019-02-20T05:21:04.985Z,100739.84
2019-02-20T05:23:34.123Z,100742.00
2019-02-20T05:26:03.258Z,100741.58
2019-02-20T05:28:32.391Z,100749.02
2019-02-20T05:31:01.526Z,100748.56
2019-02-20T05:33:32.681Z,100748.13
2019-02-20T05:36:01.820Z,100742.00
2019-02-20T05:38:30.946Z,100742.46
2019-02-20T05:41:00.077Z,100739.38
2019-02-20T05:43:29.213Z,100746.36
2019-02-20T05:45:58.344Z,100747.25
2019-02-20T05:48:27.505Z,100754.66
2019-02-20T05:50:56.704Z,100748.95
2019-02-20T05:53:25.829Z,100750.69
2019-02-20T05:55:54.984Z,100754.20
2019-02-20T05:58:24.123Z,100760.76
2019-02-20T06:00:53.411Z,100760.30
2019-02-20T06:03:22.555Z,100764.20
2019-02-20T06:05:51.722Z,100770.79
2019-02-20T06:08:20.832Z,100764.62
2019-02-20T06:10:49.983Z,100764.66
2019-02-20T06:13:19.113Z,100768.56
2019-02-20T06:15:48.275Z,100772.49
2019-02-20T06:18:17.388Z,100769.84
2019-02-20T06:20:46.535Z,100772.04
2019-02-20T06:23:15.699Z,100787.77
2019-02-20T06:25:44.843Z,100786.85
2019-02-20T06:28:13.962Z,100780.30
2019-02-20T06:30:43.165Z,100783.80
2019-02-20T06:33:12.312Z,100784.66
2019-02-20T06:35:41.458Z,100789.02
2019-02-20T06:38:29.700Z,100791.22
2019-02-20T06:40:58.848Z,100792.53
2019-02-20T06:43:27.994Z,100799.94
2019-02-20T06:45:57.106Z,100792.95
2019-02-20T06:48:28.006Z,100805.61
2019-02-20T06:50:57.143Z,100812.09
2019-02-20T06:53:26.316Z,100815.53
2019-02-20T06:55:55.452Z,100814.13
2019-02-20T06:58:24.772Z,100814.09
2019-02-20T07:00:54.261Z,100809.23
2019-02-20T07:03:23.999Z,100812.74
2019-02-20T07:06:24.096Z,100815.76
2019-02-20T07:09:28.052Z,100820.12
2019-02-20T07:12:48.603Z,100825.78
2019-02-20T07:15:56.555Z,100831.06
2019-02-20T07:18:47.253Z,100837.27
2019-02-20T07:22:00.161Z,100841.66
2019-02-20T07:25:13.333Z,100840.45
2019-02-20T07:28:32.471Z,100845.37
2019-02-20T07:31:01.644Z,100851.53
2019-02-20T07:33:30.851Z,100856.78
2019-02-20T07:35:59.989Z,100851.53
2019-02-20T07:38:29.123Z,100853.30
2019-02-20T07:40:58.259Z,100848.95
2019-02-20T07:43:27.484Z,100855.11
2019-02-20T07:45:56.613Z,100859.11
2019-02-20T07:48:25.724Z,100860.06
2019-02-20T07:50:54.958Z,100870.20
2019-02-20T07:53:24.104Z,100867.22
2019-02-20T07:55:53.324Z,100873.38
2019-02-20T07:58:22.467Z,100871.67
2019-02-20T08:00:51.622Z,100873.52
2019-02-20T08:03:20.761Z,100877.91
2019-02-20T08:05:49.891Z,100880.59
2019-02-20T08:08:19.116Z,100880.66
2019-02-20T08:10:48.236Z,100885.16
2019-02-20T08:13:17.390Z,100886.62
2019-02-20T08:15:47.729Z,100885.02
2019-02-20T08:18:16.843Z,100886.84
2019-02-20T08:20:45.984Z,100896.59
2019-02-20T08:23:15.135Z,100896.25
2019-02-20T08:25:44.383Z,100898.97
2019-02-20T08:28:13.533Z,100899.55
2019-02-20T08:30:42.691Z,100905.47
2019-02-20T08:33:11.843Z,100906.03
2019-02-20T08:35:40.993Z,100914.48
2019-02-20T08:38:10.517Z,100915.03
2019-02-20T08:40:39.716Z,100925.16
2019-02-20T08:43:08.855Z,100930.97
2019-02-20T08:45:37.984Z,100933.30
2019-02-20T08:48:07.112Z,100929.55
2019-02-20T08:50:36.277Z,100931.05
2019-02-20T08:53:05.442Z,100930.69
2019-02-20T08:55:34.593Z,100934.33
2019-02-20T08:58:03.739Z,100934.41
2019-02-20T09:00:32.930Z,100940.55
2019-02-20T09:03:02.058Z,100948.89
2019-02-20T09:05:31.226Z,100951.97
2019-02-20T09:08:00.382Z,100948.91
2019-02-20T09:10:29.536Z,100949.84
2019-02-20T09:12:58.640Z,100951.19
2019-02-20T09:15:27.857Z,100952.09
2019-02-20T09:17:56.998Z,100952.58
2019-02-20T09:20:26.230Z,100949.61
2019-02-20T09:22:55.364Z,100953.27
2019-02-20T09:25:24.521Z,100942.81
2019-02-20T09:27:53.682Z,100953.77
2019-02-20T09:30:28.456Z,100955.59
2019-02-20T09:32:53.729Z,100954.73
2019-02-20T09:35:22.858Z,100959.25
2019-02-20T09:37:52.028Z,100944.70
2019-02-20T09:40:21.153Z,100962.92
2019-02-20T09:42:50.350Z,100964.70
2019-02-20T09:45:19.465Z,100964.23
2019-02-20T09:47:48.637Z,100969.98
2019-02-20T09:50:17.943Z,100967.73
2019-02-20T09:52:52.395Z,100970.39
2019-02-20T09:55:17.986Z,100966.98
2019-02-20T09:57:47.129Z,100979.83
2019-02-20T10:00:16.434Z,100973.38
2019-02-20T10:02:47.288Z,100976.55
2019-02-20T10:05:16.596Z,100971.92
2019-02-20T10:07:45.762Z,100969.47
2019-02-20T10:10:14.891Z,100971.38
2019-02-20T10:12:44.116Z,100968.41
2019-02-20T10:15:13.693Z,100968.12
2019-02-20T10:17:42.864Z,100970.45
2019-02-20T10:20:12.008Z,100977.69
2019-02-20T10:22:41.166Z,100985.72
2019-02-20T10:25:10.424Z,100979.59
2019-02-20T10:27:39.556Z,100979.20
2019-02-20T10:30:12.159Z,100982.81
2019-02-20T10:32:43.586Z,100983.72
2019-02-20T10:35:13.473Z,100982.41
2019-02-20T10:37:42.618Z,100985.50
2019-02-20T10:40:11.977Z,100987.33
2019-02-20T10:42:41.151Z,100985.98
2019-02-20T10:45:10.343Z,100983.30
2019-02-20T10:47:39.503Z,100991.28
2019-02-20T10:50:09.120Z,100993.92
2019-02-20T10:52:38.286Z,100988.70
2019-02-20T10:55:07.457Z,100989.63
2019-02-20T10:57:37.801Z,100986.13
2019-02-20T11:00:23.450Z,100985.70
2019-02-20T11:02:44.730Z,100984.80
2019-02-20T11:05:13.860Z,100988.33
2019-02-20T11:07:43.017Z,100980.77
2019-02-20T11:10:12.162Z,100985.15
2019-02-20T11:12:41.299Z,100978.56
2019-02-20T11:15:10.668Z,100979.95
2019-02-20T11:17:39.817Z,100978.66
2019-02-20T11:20:09.174Z,100979.09
2019-02-20T11:22:38.346Z,100979.98
2019-02-20T11:25:08.825Z,100986.16
2019-02-20T11:27:39.482Z,100983.06
2019-02-20T11:30:11.528Z,100983.93
2019-02-20T11:32:40.663Z,100988.78
2019-02-20T11:35:09.977Z,100980.83
2019-02-20T11:37:39.111Z,100990.09
2019-02-20T11:40:08.903Z,100983.92
2019-02-20T11:42:38.133Z,100983.47
2019-02-20T11:45:07.973Z,100977.75
2019-02-20T11:47:37.193Z,100981.72
2019-02-20T11:50:07.857Z,100983.49
2019-02-20T11:52:38.625Z,100974.23
2019-02-20T11:55:08.010Z,100971.59
2019-02-20T11:57:37.192Z,100981.72
2019-02-20T12:00:08.277Z,100988.78
2019-02-20T12:02:37.798Z,100979.06
2019-02-20T12:05:07.047Z,100981.71
2019-02-20T12:07:36.205Z,100969.80
2019-02-20T12:10:06.173Z,100976.88
2019-02-20T12:12:35.343Z,100975.11
2019-02-20T12:15:06.259Z,100971.62
2019-02-20T12:17:35.430Z,100968.50
2019-02-20T12:20:05.028Z,100972.44
2019-02-20T12:22:34.166Z,100962.69
2019-02-20T12:25:03.338Z,100971.06
2019-02-20T12:27:33.133Z,100977.63
2019-02-20T12:30:02.405Z,100966.14
2019-02-20T12:32:31.578Z,100971.44
2019-02-20T12:35:00.744Z,100978.06
2019-02-20T12:37:29.877Z,100977.62
2019-02-20T12:39:59.018Z,100967.46
2019-02-20T12:42:28.182Z,100980.72
2019-02-20T12:44:58.651Z,100974.16
2019-02-20T12:47:27.869Z,100975.92
2019-02-20T12:49:57.018Z,100973.72
2019-02-20T12:52:26.572Z,100970.19
2019-02-20T12:54:55.782Z,100972.84
2019-02-20T12:57:24.975Z,100967.08
2019-02-20T12:59:54.191Z,100967.14
2019-02-20T13:02:23.337Z,100960.03
2019-02-20T13:04:52.569Z,100964.01
2019-02-20T13:07:21.858Z,100961.36
2019-02-20T13:09:51.217Z,100953.41
2019-02-20T13:12:20.446Z,100953.84
2019-02-20T13:14:49.579Z,100961.34
2019-02-20T13:17:18.768Z,100945.89
2019-02-20T13:19:47.901Z,100952.95
2019-02-20T13:22:17.036Z,100952.53
2019-02-20T13:24:46.181Z,100950.32
2019-02-20T13:27:22.494Z,100950.31
2019-02-20T13:29:46.228Z,100950.75
2019-02-20T13:32:16.090Z,100947.71
2019-02-20T13:34:45.338Z,100951.65
2019-02-20T13:37:14.544Z,100954.34
2019-02-20T13:39:43.717Z,100949.94
2019-02-20T13:42:12.901Z,100954.78
2019-02-20T13:44:42.065Z,100958.31
2019-02-20T13:47:11.299Z,100953.91
2019-02-20T13:49:40.452Z,100957.44
2019-02-20T13:52:09.604Z,100950.85
2019-02-20T13:54:38.774Z,100954.83
2019-02-20T13:57:08.073Z,100954.38
2019-02-20T13:59:37.429Z,100954.38
2019-02-20T14:02:06.715Z,100948.61
2019-02-20T14:04:36.749Z,100951.73
2019-02-20T14:07:05.902Z,100950.38
2019-02-20T14:09:35.097Z,100953.02
2019-02-20T14:12:04.239Z,100942.87
2019-02-20T14:14:33.817Z,100953.02
2019-02-20T14:17:02.977Z,100951.70
2019-02-20T14:19:32.146Z,100942.88
2019-02-20T14:22:01.287Z,100937.17
2019-02-20T14:24:30.474Z,100938.94
2019-02-20T14:26:59.601Z,100938.50
2019-02-20T14:29:28.803Z,100933.60
2019-02-20T14:31:57.959Z,100938.45
2019-02-20T14:34:27.224Z,100941.98
2019-02-20T14:36:56.395Z,100942.43
2019-02-20T14:39:25.590Z,100947.73
2019-02-20T14:41:54.744Z,100949.09
2019-02-20T14:44:23.898Z,100946.44
2019-02-20T14:46:53.434Z,100942.06
2019-02-20T14:49:22.583Z,100946.44
2019-02-20T14:51:51.820Z,100938.97
2019-02-20T14:54:20.980Z,100941.58
2019-02-20T14:56:50.185Z,100948.64
2019-02-20T14:59:19.330Z,100944.23
2019-02-20T15:01:48.556Z,100946.00
2019-02-20T15:04:17.716Z,100946.00
2019-02-20T15:06:46.896Z,100949.53
2019-02-20T15:09:16.107Z,100948.64
2019-02-20T15:11:45.310Z,100951.30
2019-02-20T15:14:16.076Z,100946.00
2019-02-20T15:16:45.427Z,100942.91
2019-02-20T15:19:14.721Z,100943.34
2019-02-20T15:21:43.985Z,100941.58
2019-02-20T15:24:13.178Z,100942.02
2019-02-20T15:26:42.313Z,100935.41
2019-02-20T15:29:13.519Z,100944.67
2019-02-20T15:31:42.911Z,100944.23
2019-02-20T15:34:12.281Z,100944.27
2019-02-20T15:36:43.933Z,100943.34
2019-02-20T15:39:12.784Z,100947.77
2019-02-20T15:41:43.329Z,100948.23
2019-02-20T15:44:12.570Z,100955.73
2019-02-20T15:46:41.920Z,100954.83
2019-02-20T15:49:11.115Z,100950.41
2019-02-20T15:51:40.399Z,100955.70
2019-02-20T15:54:09.744Z,100956.58
2019-02-20T15:56:38.948Z,100954.80
2019-02-20T15:59:08.508Z,100957.48
2019-02-20T16:01:37.738Z,100952.63
2019-02-20T16:04:07.340Z,100958.80
2019-02-20T16:06:37.499Z,100958.79
2019-02-20T16:09:07.520Z,100954.81
2019-02-20T16:11:36.707Z,100967.16
2019-02-20T16:14:05.899Z,100960.09
2019-02-20T16:16:35.065Z,100967.17
2019-02-20T16:19:04.631Z,100962.30
2019-02-20T16:21:33.816Z,100974.64
2019-02-20T16:24:04.043Z,100974.62
2019-02-20T16:26:33.679Z,100979.03
2019-02-20T16:29:02.939Z,100979.50
2019-02-20T16:31:32.234Z,100976.83
2019-02-20T16:34:01.603Z,100970.20
2019-02-20T16:36:30.816Z,100982.53
2019-02-20T16:39:00.158Z,100974.61
2019-02-20T16:41:29.321Z,100977.23
2019-02-20T16:43:58.537Z,100981.17
2019-02-20T16:46:28.450Z,100981.16
2019-02-20T16:48:57.757Z,100978.05
2019-02-20T16:51:26.942Z,100984.23
2019-02-20T16:53:56.153Z,100981.12
2019-02-20T16:56:25.406Z,100977.58
2019-02-20T16:58:54.724Z,100985.94
2019-02-20T17:01:23.913Z,100988.56
2019-02-20T17:03:53.314Z,100989.45
2019-02-20T17:06:22.866Z,100991.20
2019-02-20T17:08:52.298Z,100993.84
2019-02-20T17:11:21.467Z,101000.88
2019-02-20T17:13:50.816Z,101003.50
2019-02-20T17:16:20.113Z,100999.06
2019-02-20T17:18:49.368Z,101011.36
2019-02-20T17:21:18.840Z,101010.91
2019-02-20T17:23:48.028Z,101021.48
2019-02-20T17:26:17.295Z,101022.36
2019-02-20T17:28:46.478Z,101031.59
2019-02-20T17:31:15.876Z,101024.96
2019-02-20T17:33:45.334Z,101031.11
2019-02-20T17:36:14.992Z,101031.98
2019-02-20T17:38:44.233Z,101032.40
2019-02-20T17:41:13.436Z,101037.23
2019-02-20T17:43:42.649Z,101041.63
2019-02-20T17:46:11.817Z,101043.37
2019-02-20T17:48:41.171Z,101037.18
2019-02-20T17:51:10.725Z,101042.00
2019-02-20T17:53:40.069Z,101038.02
2019-02-20T17:56:09.457Z,101040.19
2019-02-20T17:58:38.785Z,101043.70
2019-02-20T18:01:16.585Z,101042.80
2019-02-20T18:03:45.765Z,101042.34
2019-02-20T18:06:15.124Z,101037.03
2019-02-20T18:08:44.388Z,101043.19
2019-02-20T18:11:13.673Z,101049.31
2019-02-20T18:13:43.087Z,101048.83
2019-02-20T18:16:12.303Z,101052.31
2019-02-20T18:18:41.612Z,101054.02
2019-02-20T18:21:10.788Z,101051.38
2019-02-20T18:23:40.197Z,101056.17
2019-02-20T18:26:09.388Z,101060.97
2019-02-20T18:28:38.966Z,101060.05
2019-02-20T18:31:08.269Z,101071.88
2019-02-20T18:33:37.624Z,101077.56
2019-02-20T18:36:07.039Z,101077.91
2019-02-20T18:38:36.362Z,101074.77
2019-02-20T18:41:05.628Z,101072.06
2019-02-20T18:43:34.943Z,101075.53
2019-02-20T18:46:04.574Z,101076.77
2019-02-20T18:48:33.839Z,101078.05
2019-02-20T18:51:03.215Z,101075.78
2019-02-20T18:53:32.854Z,101085.40
2019-02-20T18:56:02.258Z,101081.37
2019-02-20T18:58:34.021Z,101087.97
2019-02-20T19:01:02.722Z,101092.34
2019-02-20T19:03:32.198Z,101088.80
2019-02-20T19:06:01.680Z,101087.92
2019-02-20T19:08:42.264Z,101092.28
2019-02-20T19:11:27.598Z,101092.69
2019-02-20T19:14:14.582Z,101092.24
2019-02-20T19:17:33.510Z,101094.37
2019-02-20T19:20:17.654Z,101092.09
2019-02-20T19:23:50.858Z,101097.30
2019-02-20T19:26:37.747Z,101095.91
2019-02-20T19:30:05.045Z,101098.45
2019-02-20T19:33:22.765Z,101094.86
2019-02-20T19:36:48.109Z,101100.97
2019-02-20T19:39:56.781Z,101096.09
2019-02-20T19:43:12.622Z,101105.64
2019-02-20T19:46:03.497Z,101098.95
2019-02-20T19:49:11.369Z,101093.67
2019-02-20T19:52:21.022Z,101095.84
2019-02-20T19:55:15.365Z,101088.84
2019-02-20T19:58:11.457Z,101093.63
2019-02-20T20:01:12.763Z,101093.14
2019-02-20T20:04:06.194Z,101097.45
2019-02-20T20:07:19.982Z,101091.77
2019-02-20T20:10:29.067Z,101089.11
2019-02-20T20:13:23.102Z,101079.84
2019-02-20T20:16:19.012Z,101094.69
2019-02-20T20:19:40.991Z,101092.44
2019-02-20T20:22:58.359Z,101098.11
2019-02-20T20:25:56.533Z,101091.08
2019-02-20T20:29:08.198Z,101084.95
2019-02-20T20:31:50.571Z,101089.33
2019-02-20T20:35:00.687Z,101083.59
2019-02-20T20:38:00.665Z,101093.20
2019-02-20T20:41:09.060Z,101092.28
2019-02-20T20:44:13.658Z,101090.05
2019-02-20T20:47:04.256Z,101089.14
2019-02-20T20:50:04.822Z,101089.58
2019-02-20T20:53:12.594Z,101088.66
2019-02-20T20:55:54.615Z,101086.00
2019-02-20T20:59:17.535Z,101084.66
2019-02-20T21:01:50.076Z,101079.41
2019-02-20T21:04:48.135Z,101080.17
2019-02-20T21:07:39.338Z,101087.16
2019-02-20T21:10:46.500Z,101084.06
2019-02-20T21:13:47.159Z,101078.31
2019-02-20T21:17:04.054Z,101080.95
2019-02-20T21:20:35.140Z,101078.75
2019-02-20T21:23:42.127Z,101076.09
2019-02-20T21:27:03.907Z,101071.23
2019-02-20T21:29:59.088Z,101079.06
2019-02-20T21:32:44.135Z,101090.36
2019-02-20T21:35:24.091Z,101090.27
2019-02-20T21:38:43.099Z,101087.61
2019-02-20T21:41:26.766Z,101087.19
2019-02-20T21:44:22.070Z,101095.50
2019-02-20T21:47:12.860Z,101090.67
2019-02-20T21:50:26.205Z,101092.41
2019-02-20T21:53:42.445Z,101087.55
2019-02-20T21:56:32.560Z,101084.86
2019-02-20T21:59:38.948Z,101083.89
2019-02-20T22:02:32.437Z,101080.77
2019-02-20T22:05:45.895Z,101088.17
2019-02-20T22:08:53.273Z,101094.22
2019-02-20T22:11:45.841Z,101097.28
2019-02-20T22:15:07.885Z,101101.22
2019-02-20T22:18:01.780Z,101102.05
2019-02-20T22:21:07.638Z,101096.76
2019-02-20T22:24:00.215Z,101098.95
2019-02-20T22:26:42.815Z,101105.01
2019-02-20T22:29:53.166Z,101107.17
2019-02-20T22:33:10.709Z,101103.23
2019-02-20T22:36:15.972Z,101103.62
2019-02-20T22:39:23.270Z,101103.11
2019-02-20T22:42:12.330Z,101100.34
2019-02-20T22:45:17.268Z,101107.31
2019-02-20T22:47:54.330Z,101102.42
2019-02-20T22:51:02.500Z,101109.34
2019-02-20T22:54:01.039Z,101111.02
2019-02-20T22:57:14.132Z,101104.87
2019-02-20T23:00:34.594Z,101110.91
2019-02-20T23:03:14.427Z,101105.59
2019-02-20T23:06:39.643Z,101106.80
2019-02-20T23:10:07.835Z,101108.47
2019-02-20T23:13:06.879Z,101107.48
2019-02-20T23:15:36.051Z,101111.31
2019-02-20T23:18:05.179Z,101106.84
2019-02-20T23:20:34.397Z,101110.28
2019-02-20T23:23:03.567Z,101105.88
2019-02-20T23:25:32.725Z,101107.63
2019-02-20T23:28:01.890Z,101108.01
2019-02-20T23:30:31.214Z,101114.11
2019-02-20T23:33:00.786Z,101121.10
2019-02-20T23:35:30.075Z,101126.78
2019-02-20T23:37:59.215Z,101134.66
2019-02-20T23:40:28.376Z,101126.78
2019-02-20T23:42:57.606Z,101131.56
2019-02-20T23:45:26.766Z,101132.92
2019-02-20T23:47:55.930Z,101132.88
2019-02-20T23:50:25.065Z,101141.57
2019-02-20T23:52:54.266Z,101138.48
2019-02-20T23:55:23.400Z,101145.01
2019-02-20T23:57:52.550Z,101142.37
